Lejeune, North Carolina
Current Conditions -  °F | °C
As of 11:56 PM on Saturday 20 Dec 2014 (Local Time) from KNCA Reporting Station
Haze Haze  
Wind Chill: 38°   Ceiling: 7000
Heat Index: 38°   Visibility: 6mi
Dew Point: 36°   Wind: 3mph
Humidity: 93%   Direction: 10°N
Pressure: 30.26"   Gusts: NA
Location:  34.7003°N, 77.3614°W
Report Text: KNCA 210456Z AUTO 01003KT 6SM BR OVC070 03/02 A3026 RMK AO2 SLP250 T00330022 400670022
Loading
Personal Weather Stations






























Interactive Weather Map New forecast layout! Learn more

10-Day Weather Forecast

Advertisements
Track Severe Weather on mobile